sensor_id;sensor_type;location;lat;lon;timestamp;temperature;humidity
5346;DHT22;2695;49.444;11.054;2022-12-18T00:02:23;-5.30;99.90
5346;DHT22;2695;49.444;11.054;2022-12-18T00:04:51;-5.30;99.90
5346;DHT22;2695;49.444;11.054;2022-12-18T00:07:22;-5.30;99.90
5346;DHT22;2695;49.444;11.054;2022-12-18T00:09:50;-5.30;99.90
5346;DHT22;2695;49.444;11.054;2022-12-18T00:12:19;-5.30;99.90
5346;DHT22;2695;49.444;11.054;2022-12-18T00:14:47;-5.40;99.90
5346;DHT22;2695;49.444;11.054;2022-12-18T00:17:15;-5.40;99.90
5346;DHT22;2695;49.444;11.054;2022-12-18T00:19:43;-5.50;99.90
5346;DHT22;2695;49.444;11.054;2022-12-18T00:22:11;-5.50;99.90
5346;DHT22;2695;49.444;11.054;2022-12-18T00:24:39;-5.60;99.90
5346;DHT22;2695;49.444;11.054;2022-12-18T00:27:07;-5.60;99.90
5346;DHT22;2695;49.444;11.054;2022-12-18T00:29:39;-5.70;99.90
5346;DHT22;2695;49.444;11.054;2022-12-18T00:32:07;-5.70;99.90
5346;DHT22;2695;49.444;11.054;2022-12-18T00:34:35;-5.70;99.90
5346;DHT22;2695;49.444;11.054;2022-12-18T00:37:03;-5.70;99.90
5346;DHT22;2695;49.444;11.054;2022-12-18T00:39:31;-5.80;99.90
5346;DHT22;2695;49.444;11.054;2022-12-18T00:41:59;-5.80;99.90
5346;DHT22;2695;49.444;11.054;2022-12-18T00:44:46;-5.80;99.90
5346;DHT22;2695;49.444;11.054;2022-12-18T00:47:14;-5.60;99.90
5346;DHT22;2695;49.444;11.054;2022-12-18T00:49:42;-5.80;99.90
5346;DHT22;2695;49.444;11.054;2022-12-18T00:52:12;-5.90;99.90
5346;DHT22;2695;49.444;11.054;2022-12-18T00:54:39;-6.00;99.90
5346;DHT22;2695;49.444;11.054;2022-12-18T00:57:07;-6.00;99.90
5346;DHT22;2695;49.444;11.054;2022-12-18T00:59:35;-6.10;99.90
5346;DHT22;2695;49.444;11.054;2022-12-18T01:02:05;-6.10;99.90
5346;DHT22;2695;49.444;11.054;2022-12-18T01:04:33;-6.10;99.90
5346;DHT22;2695;49.444;11.054;2022-12-18T01:07:01;-6.20;99.90
5346;DHT22;2695;49.444;11.054;2022-12-18T01:09:30;-6.30;99.90
5346;DHT22;2695;49.444;11.054;2022-12-18T01:11:58;-6.20;99.90
5346;DHT22;2695;49.444;11.054;2022-12-18T01:14:26;-6.20;99.90
5346;DHT22;2695;49.444;11.054;2022-12-18T01:16:54;-6.30;99.90
5346;DHT22;2695;49.444;11.054;2022-12-18T01:19:23;-6.30;99.90
5346;DHT22;2695;49.444;11.054;2022-12-18T01:21:51;-6.40;99.90
5346;DHT22;2695;49.444;11.054;2022-12-18T01:24:19;-6.40;99.90
5346;DHT22;2695;49.444;11.054;2022-12-18T01:26:47;-6.60;99.90
5346;DHT22;2695;49.444;11.054;2022-12-18T01:29:15;-6.70;99.90
5346;DHT22;2695;49.444;11.054;2022-12-18T01:31:43;-6.80;99.90
5346;DHT22;2695;49.444;11.054;2022-12-18T01:34:11;-6.80;99.90
5346;DHT22;2695;49.444;11.054;2022-12-18T01:36:41;-6.70;99.90
5346;DHT22;2695;49.444;11.054;2022-12-18T01:39:11;-6.70;99.90
5346;DHT22;2695;49.444;11.054;2022-12-18T01:41:39;-6.80;99.90
5346;DHT22;2695;49.444;11.054;2022-12-18T01:44:51;-6.70;99.90
5346;DHT22;2695;49.444;11.054;2022-12-18T01:47:24;-6.70;99.90
5346;DHT22;2695;49.444;11.054;2022-12-18T01:49:54;-6.60;99.90
5346;DHT22;2695;49.444;11.054;2022-12-18T01:52:25;-6.60;99.90
5346;DHT22;2695;49.444;11.054;2022-12-18T01:54:54;-6.70;99.90
5346;DHT22;2695;49.444;11.054;2022-12-18T01:57:24;-6.70;99.90
5346;DHT22;2695;49.444;11.054;2022-12-18T01:59:55;-6.70;99.90
5346;DHT22;2695;49.444;11.054;2022-12-18T02:02:26;-6.70;99.90
5346;DHT22;2695;49.444;11.054;2022-12-18T02:04:55;-6.70;99.90
5346;DHT22;2695;49.444;11.054;2022-12-18T02:07:34;-6.70;99.90
5346;DHT22;2695;49.444;11.054;2022-12-18T02:10:09;-6.70;99.90
5346;DHT22;2695;49.444;11.054;2022-12-18T02:12:45;-6.60;99.90
5346;DHT22;2695;49.444;11.054;2022-12-18T02:15:21;-6.60;99.90
5346;DHT22;2695;49.444;11.054;2022-12-18T02:17:55;-6.50;99.90
5346;DHT22;2695;49.444;11.054;2022-12-18T02:20:31;-6.40;99.90
5346;DHT22;2695;49.444;11.054;2022-12-18T02:23:12;-6.30;99.90
5346;DHT22;2695;49.444;11.054;2022-12-18T02:26:06;-6.20;99.90
5346;DHT22;2695;49.444;11.054;2022-12-18T02:28:38;-6.10;99.90
5346;DHT22;2695;49.444;11.054;2022-12-18T02:31:11;-6.00;99.90
5346;DHT22;2695;49.444;11.054;2022-12-18T02:33:40;-5.90;99.90
5346;DHT22;2695;49.444;11.054;2022-12-18T02:36:11;-6.00;99.90
5346;DHT22;2695;49.444;11.054;2022-12-18T02:38:42;-6.00;99.90
5346;DHT22;2695;49.444;11.054;2022-12-18T02:41:13;-6.00;99.90
5346;DHT22;2695;49.444;11.054;2022-12-18T02:43:46;-6.00;99.90
5346;DHT22;2695;49.444;11.054;2022-12-18T02:46:31;-5.90;99.90
5346;DHT22;2695;49.444;11.054;2022-12-18T02:49:09;-5.80;99.90
5346;DHT22;2695;49.444;11.054;2022-12-18T02:51:47;-5.80;99.90
5346;DHT22;2695;49.444;11.054;2022-12-18T02:54:23;-5.70;99.90
5346;DHT22;2695;49.444;11.054;2022-12-18T02:56:55;-5.70;99.90
5346;DHT22;2695;49.444;11.054;2022-12-18T02:59:30;-5.70;99.90
5346;DHT22;2695;49.444;11.054;2022-12-18T03:02:07;-5.70;99.90
5346;DHT22;2695;49.444;11.054;2022-12-18T03:04:46;-5.60;99.90
5346;DHT22;2695;49.444;11.054;2022-12-18T03:07:19;-5.50;99.90
5346;DHT22;2695;49.444;11.054;2022-12-18T03:09:51;-5.50;99.90
5346;DHT22;2695;49.444;11.054;2022-12-18T03:12:24;-5.30;99.90
5346;DHT22;2695;49.444;11.054;2022-12-18T03:14:59;-5.20;99.90
5346;DHT22;2695;49.444;11.054;2022-12-18T03:17:31;-5.20;99.90
5346;DHT22;2695;49.444;11.054;2022-12-18T03:20:05;-5.30;99.90
5346;DHT22;2695;49.444;11.054;2022-12-18T03:22:37;-5.40;99.90
5346;DHT22;2695;49.444;11.054;2022-12-18T03:25:09;-5.50;99.90
5346;DHT22;2695;49.444;11.054;2022-12-18T03:27:43;-5.60;99.90
5346;DHT22;2695;49.444;11.054;2022-12-18T03:30:14;-5.50;99.90
5346;DHT22;2695;49.444;11.054;2022-12-18T03:32:46;-5.40;99.90
5346;DHT22;2695;49.444;11.054;2022-12-18T03:35:20;-5.40;99.90
5346;DHT22;2695;49.444;11.054;2022-12-18T03:37:50;-5.30;99.90
5346;DHT22;2695;49.444;11.054;2022-12-18T03:40:19;-5.30;99.90
5346;DHT22;2695;49.444;11.054;2022-12-18T03:42:52;-5.20;99.90
5346;DHT22;2695;49.444;11.054;2022-12-18T03:45:26;-5.20;99.90
5346;DHT22;2695;49.444;11.054;2022-12-18T03:47:59;-5.20;99.90
5346;DHT22;2695;49.444;11.054;2022-12-18T03:50:37;-5.10;99.90
5346;DHT22;2695;49.444;11.054;2022-12-18T03:53:16;-5.10;99.90
5346;DHT22;2695;49.444;11.054;2022-12-18T03:55:45;-5.10;99.90
5346;DHT22;2695;49.444;11.054;2022-12-18T03:58:18;-5.00;99.90
5346;DHT22;2695;49.444;11.054;2022-12-18T04:00:48;-5.00;99.90
5346;DHT22;2695;49.444;11.054;2022-12-18T04:03:17;-5.00;99.90
5346;DHT22;2695;49.444;11.054;2022-12-18T04:05:53;-4.90;99.90
5346;DHT22;2695;49.444;11.054;2022-12-18T04:08:22;-4.80;99.90
5346;DHT22;2695;49.444;11.054;2022-12-18T04:10:50;-4.80;99.90
5346;DHT22;2695;49.444;11.054;2022-12-18T04:13:24;-4.90;99.90
5346;DHT22;2695;49.444;11.054;2022-12-18T04:15:52;-4.90;99.90
5346;DHT22;2695;49.444;11.054;2022-12-18T04:18:20;-4.90;99.90
5346;DHT22;2695;49.444;11.054;2022-12-18T04:20:48;-4.90;99.90
5346;DHT22;2695;49.444;11.054;2022-12-18T04:23:16;-4.90;99.90
5346;DHT22;2695;49.444;11.054;2022-12-18T04:25:45;-4.90;99.90
5346;DHT22;2695;49.444;11.054;2022-12-18T04:28:14;-4.90;99.90
5346;DHT22;2695;49.444;11.054;2022-12-18T04:30:43;-4.90;99.90
5346;DHT22;2695;49.444;11.054;2022-12-18T04:33:12;-5.00;99.90
5346;DHT22;2695;49.444;11.054;2022-12-18T04:35:41;-4.90;99.90
5346;DHT22;2695;49.444;11.054;2022-12-18T04:38:10;-4.90;99.90
5346;DHT22;2695;49.444;11.054;2022-12-18T04:40:38;-4.80;99.90
5346;DHT22;2695;49.444;11.054;2022-12-18T04:43:07;-4.80;99.90
5346;DHT22;2695;49.444;11.054;2022-12-18T04:45:35;-4.80;99.90
5346;DHT22;2695;49.444;11.054;2022-12-18T04:48:05;-4.70;99.90
5346;DHT22;2695;49.444;11.054;2022-12-18T04:50:33;-4.70;99.90
5346;DHT22;2695;49.444;11.054;2022-12-18T04:53:01;-4.60;99.90
5346;DHT22;2695;49.444;11.054;2022-12-18T04:55:29;-4.50;99.90
5346;DHT22;2695;49.444;11.054;2022-12-18T04:57:58;-4.50;99.90
5346;DHT22;2695;49.444;11.054;2022-12-18T05:00:25;-4.50;99.90
5346;DHT22;2695;49.444;11.054;2022-12-18T05:02:54;-4.50;99.90
5346;DHT22;2695;49.444;11.054;2022-12-18T05:05:24;-4.50;99.90
5346;DHT22;2695;49.444;11.054;2022-12-18T05:07:52;-4.50;99.90
5346;DHT22;2695;49.444;11.054;2022-12-18T05:10:20;-4.50;99.90
5346;DHT22;2695;49.444;11.054;2022-12-18T05:12:48;-4.60;99.90
5346;DHT22;2695;49.444;11.054;2022-12-18T05:15:29;-4.50;99.90
5346;DHT22;2695;49.444;11.054;2022-12-18T05:17:58;-4.40;99.90
5346;DHT22;2695;49.444;11.054;2022-12-18T05:20:28;-4.40;99.90
5346;DHT22;2695;49.444;11.054;2022-12-18T05:22:56;-4.40;99.90
5346;DHT22;2695;49.444;11.054;2022-12-18T05:25:24;-4.40;99.90
5346;DHT22;2695;49.444;11.054;2022-12-18T05:27:52;-4.30;99.90
5346;DHT22;2695;49.444;11.054;2022-12-18T05:30:20;-4.20;99.90
5346;DHT22;2695;49.444;11.054;2022-12-18T05:32:49;-4.20;99.90
5346;DHT22;2695;49.444;11.054;2022-12-18T05:35:17;-4.20;99.90
5346;DHT22;2695;49.444;11.054;2022-12-18T05:37:46;-4.20;99.90
5346;DHT22;2695;49.444;11.054;2022-12-18T05:40:14;-4.20;99.90
5346;DHT22;2695;49.444;11.054;2022-12-18T05:42:42;-4.30;99.90
5346;DHT22;2695;49.444;11.054;2022-12-18T05:45:10;-4.40;99.90
5346;DHT22;2695;49.444;11.054;2022-12-18T05:47:38;-4.40;99.90
5346;DHT22;2695;49.444;11.054;2022-12-18T05:50:13;-4.40;99.90
5346;DHT22;2695;49.444;11.054;2022-12-18T05:52:42;-4.40;99.90
5346;DHT22;2695;49.444;11.054;2022-12-18T05:55:11;-4.30;99.90
5346;DHT22;2695;49.444;11.054;2022-12-18T05:57:39;-4.30;99.90
5346;DHT22;2695;49.444;11.054;2022-12-18T06:00:08;-4.30;99.90
5346;DHT22;2695;49.444;11.054;2022-12-18T06:02:37;-4.30;99.90
5346;DHT22;2695;49.444;11.054;2022-12-18T06:05:05;-4.20;99.90
5346;DHT22;2695;49.444;11.054;2022-12-18T06:07:34;-4.20;99.90
5346;DHT22;2695;49.444;11.054;2022-12-18T06:10:02;-4.20;99.90
5346;DHT22;2695;49.444;11.054;2022-12-18T06:12:31;-4.10;99.90
5346;DHT22;2695;49.444;11.054;2022-12-18T06:15:00;-4.20;99.90
5346;DHT22;2695;49.444;11.054;2022-12-18T06:17:28;-4.10;99.90
5346;DHT22;2695;49.444;11.054;2022-12-18T06:19:57;-4.10;99.90
5346;DHT22;2695;49.444;11.054;2022-12-18T06:22:25;-4.10;99.90
5346;DHT22;2695;49.444;11.054;2022-12-18T06:24:53;-4.10;99.90
5346;DHT22;2695;49.444;11.054;2022-12-18T06:27:21;-4.20;99.90
5346;DHT22;2695;49.444;11.054;2022-12-18T06:29:51;-4.20;99.90
5346;DHT22;2695;49.444;11.054;2022-12-18T06:32:19;-4.20;99.90
5346;DHT22;2695;49.444;11.054;2022-12-18T06:34:47;-4.20;99.90
5346;DHT22;2695;49.444;11.054;2022-12-18T06:37:15;-4.30;99.90
5346;DHT22;2695;49.444;11.054;2022-12-18T06:39:43;-4.30;99.90
5346;DHT22;2695;49.444;11.054;2022-12-18T06:42:11;-4.20;99.90
5346;DHT22;2695;49.444;11.054;2022-12-18T06:44:39;-4.20;99.90
5346;DHT22;2695;49.444;11.054;2022-12-18T06:47:09;-4.10;99.90
5346;DHT22;2695;49.444;11.054;2022-12-18T06:49:37;-4.00;99.90
5346;DHT22;2695;49.444;11.054;2022-12-18T06:52:05;-4.00;99.90
5346;DHT22;2695;49.444;11.054;2022-12-18T06:54:33;-4.00;99.90
5346;DHT22;2695;49.444;11.054;2022-12-18T06:57:01;-4.10;99.90
5346;DHT22;2695;49.444;11.054;2022-12-18T06:59:29;-4.00;99.90
5346;DHT22;2695;49.444;11.054;2022-12-18T07:01:57;-4.00;99.90
5346;DHT22;2695;49.444;11.054;2022-12-18T07:04:29;-4.00;99.90
5346;DHT22;2695;49.444;11.054;2022-12-18T07:06:57;-3.90;99.90
5346;DHT22;2695;49.444;11.054;2022-12-18T07:09:25;-3.90;99.90
5346;DHT22;2695;49.444;11.054;2022-12-18T07:11:55;-3.90;99.90
5346;DHT22;2695;49.444;11.054;2022-12-18T07:14:23;-3.80;99.90
5346;DHT22;2695;49.444;11.054;2022-12-18T07:16:51;-3.80;99.90
5346;DHT22;2695;49.444;11.054;2022-12-18T07:19:19;-3.80;99.90
5346;DHT22;2695;49.444;11.054;2022-12-18T07:21:51;-3.80;99.90
5346;DHT22;2695;49.444;11.054;2022-12-18T07:24:19;-3.80;99.90
5346;DHT22;2695;49.444;11.054;2022-12-18T07:26:47;-3.90;99.90
5346;DHT22;2695;49.444;11.054;2022-12-18T07:29:15;-3.90;99.90
5346;DHT22;2695;49.444;11.054;2022-12-18T07:31:43;-3.90;99.90
5346;DHT22;2695;49.444;11.054;2022-12-18T07:34:12;-3.80;99.90
5346;DHT22;2695;49.444;11.054;2022-12-18T07:36:41;-3.80;99.90
5346;DHT22;2695;49.444;11.054;2022-12-18T07:39:12;-3.90;99.90
5346;DHT22;2695;49.444;11.054;2022-12-18T07:41:40;-3.80;99.90
5346;DHT22;2695;49.444;11.054;2022-12-18T07:44:13;-3.80;99.90
5346;DHT22;2695;49.444;11.054;2022-12-18T07:46:41;-3.80;99.90
5346;DHT22;2695;49.444;11.054;2022-12-18T07:49:11;-3.70;99.90
5346;DHT22;2695;49.444;11.054;2022-12-18T07:51:40;-3.60;99.90
5346;DHT22;2695;49.444;11.054;2022-12-18T07:54:08;-3.60;99.90
5346;DHT22;2695;49.444;11.054;2022-12-18T07:56:37;-3.50;99.90
5346;DHT22;2695;49.444;11.054;2022-12-18T07:59:23;-3.40;99.90
5346;DHT22;2695;49.444;11.054;2022-12-18T08:05:19;-3.20;99.90
5346;DHT22;2695;49.444;11.054;2022-12-18T08:07:47;-3.10;99.90
5346;DHT22;2695;49.444;11.054;2022-12-18T08:10:16;-3.20;99.90
5346;DHT22;2695;49.444;11.054;2022-12-18T08:12:45;-3.10;99.90
5346;DHT22;2695;49.444;11.054;2022-12-18T08:15:16;-3.00;99.90
5346;DHT22;2695;49.444;11.054;2022-12-18T08:17:44;-2.90;99.90
5346;DHT22;2695;49.444;11.054;2022-12-18T08:20:12;-2.80;99.90
5346;DHT22;2695;49.444;11.054;2022-12-18T08:22:42;-2.70;99.90
5346;DHT22;2695;49.444;11.054;2022-12-18T08:25:10;-2.60;99.90
5346;DHT22;2695;49.444;11.054;2022-12-18T08:27:38;-2.50;99.90
5346;DHT22;2695;49.444;11.054;2022-12-18T08:30:09;-2.40;99.90
5346;DHT22;2695;49.444;11.054;2022-12-18T08:32:37;-2.30;99.90
5346;DHT22;2695;49.444;11.054;2022-12-18T08:35:06;-2.20;99.90
5346;DHT22;2695;49.444;11.054;2022-12-18T08:37:35;-2.10;99.90
5346;DHT22;2695;49.444;11.054;2022-12-18T08:40:04;-2.10;99.90
5346;DHT22;2695;49.444;11.054;2022-12-18T08:42:32;-2.10;99.90
5346;DHT22;2695;49.444;11.054;2022-12-18T08:45:19;-2.10;99.90
5346;DHT22;2695;49.444;11.054;2022-12-18T08:47:47;-2.00;99.90
5346;DHT22;2695;49.444;11.054;2022-12-18T08:50:15;-1.90;99.90
5346;DHT22;2695;49.444;11.054;2022-12-18T08:52:43;-1.90;99.90
5346;DHT22;2695;49.444;11.054;2022-12-18T08:55:12;-1.80;99.90
5346;DHT22;2695;49.444;11.054;2022-12-18T08:57:40;-1.80;99.90
5346;DHT22;2695;49.444;11.054;2022-12-18T09:00:10;-1.80;99.90
5346;DHT22;2695;49.444;11.054;2022-12-18T09:02:42;-1.80;99.90
5346;DHT22;2695;49.444;11.054;2022-12-18T09:05:10;-1.90;99.90
5346;DHT22;2695;49.444;11.054;2022-12-18T09:07:39;-1.80;99.90
5346;DHT22;2695;49.444;11.054;2022-12-18T09:10:07;-1.80;99.90
5346;DHT22;2695;49.444;11.054;2022-12-18T09:12:35;-1.70;99.90
5346;DHT22;2695;49.444;11.054;2022-12-18T09:15:04;-1.70;99.90
5346;DHT22;2695;49.444;11.054;2022-12-18T09:17:32;-1.70;99.90
5346;DHT22;2695;49.444;11.054;2022-12-18T09:20:02;-1.60;99.90
5346;DHT22;2695;49.444;11.054;2022-12-18T09:22:30;-1.80;99.90
5346;DHT22;2695;49.444;11.054;2022-12-18T09:24:58;-1.80;99.90
5346;DHT22;2695;49.444;11.054;2022-12-18T09:27:26;-1.70;99.90
5346;DHT22;2695;49.444;11.054;2022-12-18T09:29:54;-1.60;99.90
5346;DHT22;2695;49.444;11.054;2022-12-18T09:32:22;-1.50;99.90
5346;DHT22;2695;49.444;11.054;2022-12-18T09:34:50;-1.40;99.90
5346;DHT22;2695;49.444;11.054;2022-12-18T09:37:19;-1.10;99.90
5346;DHT22;2695;49.444;11.054;2022-12-18T09:39:47;-1.00;99.90
5346;DHT22;2695;49.444;11.054;2022-12-18T09:42:20;-1.00;99.90
5346;DHT22;2695;49.444;11.054;2022-12-18T09:44:50;-1.10;99.90
5346;DHT22;2695;49.444;11.054;2022-12-18T09:47:23;-1.00;99.90
5346;DHT22;2695;49.444;11.054;2022-12-18T09:49:59;-0.90;99.90
5346;DHT22;2695;49.444;11.054;2022-12-18T09:52:34;-1.10;99.90
5346;DHT22;2695;49.444;11.054;2022-12-18T09:55:16;-1.20;99.90
5346;DHT22;2695;49.444;11.054;2022-12-18T09:57:51;-1.30;99.90
5346;DHT22;2695;49.444;11.054;2022-12-18T10:00:23;-1.30;99.90
5346;DHT22;2695;49.444;11.054;2022-12-18T10:02:53;-1.30;99.90
5346;DHT22;2695;49.444;11.054;2022-12-18T10:05:31;-1.30;99.90
5346;DHT22;2695;49.444;11.054;2022-12-18T10:08:07;-1.10;99.90
5346;DHT22;2695;49.444;11.054;2022-12-18T10:10:42;-1.00;99.90
5346;DHT22;2695;49.444;11.054;2022-12-18T10:13:19;-1.00;99.90
5346;DHT22;2695;49.444;11.054;2022-12-18T10:16:00;-1.10;99.90
5346;DHT22;2695;49.444;11.054;2022-12-18T10:18:42;-1.30;99.90
5346;DHT22;2695;49.444;11.054;2022-12-18T10:21:17;-1.30;99.90
5346;DHT22;2695;49.444;11.054;2022-12-18T10:23:54;-1.20;99.90
5346;DHT22;2695;49.444;11.054;2022-12-18T10:26:26;-1.30;99.90
5346;DHT22;2695;49.444;11.054;2022-12-18T10:28:56;-1.10;99.90
5346;DHT22;2695;49.444;11.054;2022-12-18T10:31:31;-0.90;99.90
5346;DHT22;2695;49.444;11.054;2022-12-18T10:33:59;-0.90;99.90
5346;DHT22;2695;49.444;11.054;2022-12-18T10:36:27;-0.80;99.90
5346;DHT22;2695;49.444;11.054;2022-12-18T10:39:15;-0.50;99.90
5346;DHT22;2695;49.444;11.054;2022-12-18T10:41:43;0.20;99.90
5346;DHT22;2695;49.444;11.054;2022-12-18T10:44:15;1.00;99.90
5346;DHT22;2695;49.444;11.054;2022-12-18T10:46:46;1.80;99.90
5346;DHT22;2695;49.444;11.054;2022-12-18T10:49:24;1.70;99.90
5346;DHT22;2695;49.444;11.054;2022-12-18T10:52:11;1.80;99.90
5346;DHT22;2695;49.444;11.054;2022-12-18T10:54:50;1.70;99.90
5346;DHT22;2695;49.444;11.054;2022-12-18T10:57:32;1.30;99.90
5346;DHT22;2695;49.444;11.054;2022-12-18T11:00:23;1.40;99.90
5346;DHT22;2695;49.444;11.054;2022-12-18T11:02:51;1.80;99.90
5346;DHT22;2695;49.444;11.054;2022-12-18T11:05:27;1.80;99.90
5346;DHT22;2695;49.444;11.054;2022-12-18T11:07:55;1.70;99.90
5346;DHT22;2695;49.444;11.054;2022-12-18T11:10:28;1.70;99.90
5346;DHT22;2695;49.444;11.054;2022-12-18T11:13:12;1.60;99.90
5346;DHT22;2695;49.444;11.054;2022-12-18T11:15:44;1.50;99.90
5346;DHT22;2695;49.444;11.054;2022-12-18T11:18:21;1.50;99.90
5346;DHT22;2695;49.444;11.054;2022-12-18T11:20:54;1.40;99.90
5346;DHT22;2695;49.444;11.054;2022-12-18T11:23:25;1.50;99.90
5346;DHT22;2695;49.444;11.054;2022-12-18T11:25:56;1.80;99.90
5346;DHT22;2695;49.444;11.054;2022-12-18T11:28:36;1.40;99.90
5346;DHT22;2695;49.444;11.054;2022-12-18T11:31:16;1.40;99.90
5346;DHT22;2695;49.444;11.054;2022-12-18T11:33:49;1.40;99.90
5346;DHT22;2695;49.444;11.054;2022-12-18T11:36:44;1.30;99.90
5346;DHT22;2695;49.444;11.054;2022-12-18T11:39:18;1.20;99.90
5346;DHT22;2695;49.444;11.054;2022-12-18T11:41:54;1.10;99.90
5346;DHT22;2695;49.444;11.054;2022-12-18T11:44:45;0.90;99.90
5346;DHT22;2695;49.444;11.054;2022-12-18T11:47:21;0.50;99.90
5346;DHT22;2695;49.444;11.054;2022-12-18T11:49:55;0.20;99.90
5346;DHT22;2695;49.444;11.054;2022-12-18T11:52:27;0.00;99.90
5346;DHT22;2695;49.444;11.054;2022-12-18T11:54:59;-0.10;99.90
5346;DHT22;2695;49.444;11.054;2022-12-18T11:57:36;-0.20;99.90
5346;DHT22;2695;49.444;11.054;2022-12-18T12:00:12;-0.20;99.90
5346;DHT22;2695;49.444;11.054;2022-12-18T12:03:18;-0.10;99.90
5346;DHT22;2695;49.444;11.054;2022-12-18T12:05:58;-0.10;99.90
5346;DHT22;2695;49.444;11.054;2022-12-18T12:08:38;-0.20;99.90
5346;DHT22;2695;49.444;11.054;2022-12-18T12:11:15;-0.20;99.90
5346;DHT22;2695;49.444;11.054;2022-12-18T12:13:53;-0.30;99.90
5346;DHT22;2695;49.444;11.054;2022-12-18T12:16:25;-0.50;99.90
5346;DHT22;2695;49.444;11.054;2022-12-18T12:19:21;-0.50;99.90
5346;DHT22;2695;49.444;11.054;2022-12-18T12:21:54;-0.50;99.90
5346;DHT22;2695;49.444;11.054;2022-12-18T12:24:34;-0.40;99.90
5346;DHT22;2695;49.444;11.054;2022-12-18T12:27:10;-0.40;99.90
5346;DHT22;2695;49.444;11.054;2022-12-18T12:29:58;-0.40;99.90
5346;DHT22;2695;49.444;11.054;2022-12-18T12:32:40;-0.40;99.90
5346;DHT22;2695;49.444;11.054;2022-12-18T12:35:25;-0.40;99.90
5346;DHT22;2695;49.444;11.054;2022-12-18T12:38:05;-0.40;99.90
5346;DHT22;2695;49.444;11.054;2022-12-18T12:40:39;-0.50;99.90
5346;DHT22;2695;49.444;11.054;2022-12-18T12:43:31;-0.60;99.90
5346;DHT22;2695;49.444;11.054;2022-12-18T12:46:05;-0.60;99.90
5346;DHT22;2695;49.444;11.054;2022-12-18T12:48:39;-0.50;99.90
5346;DHT22;2695;49.444;11.054;2022-12-18T12:51:13;-0.60;99.90
5346;DHT22;2695;49.444;11.054;2022-12-18T12:53:47;-0.50;99.90
5346;DHT22;2695;49.444;11.054;2022-12-18T12:56:18;-0.40;99.90
5346;DHT22;2695;49.444;11.054;2022-12-18T12:58:58;-0.30;99.90
5346;DHT22;2695;49.444;11.054;2022-12-18T13:01:36;-0.40;99.90
5346;DHT22;2695;49.444;11.054;2022-12-18T13:04:18;-0.40;99.90
5346;DHT22;2695;49.444;11.054;2022-12-18T13:06:55;-0.30;99.90
5346;DHT22;2695;49.444;11.054;2022-12-18T13:09:30;-0.20;99.90
5346;DHT22;2695;49.444;11.054;2022-12-18T13:12:03;-0.20;99.90
5346;DHT22;2695;49.444;11.054;2022-12-18T13:14:49;-0.40;99.90
5346;DHT22;2695;49.444;11.054;2022-12-18T13:17:30;-0.50;99.90
5346;DHT22;2695;49.444;11.054;2022-12-18T13:20:12;-0.60;99.90
5346;DHT22;2695;49.444;11.054;2022-12-18T13:22:44;-0.60;99.90
5346;DHT22;2695;49.444;11.054;2022-12-18T13:25:31;-0.60;99.90
5346;DHT22;2695;49.444;11.054;2022-12-18T13:28:11;-0.60;99.90
5346;DHT22;2695;49.444;11.054;2022-12-18T13:30:56;-0.60;99.90
5346;DHT22;2695;49.444;11.054;2022-12-18T13:33:41;-0.60;99.90
5346;DHT22;2695;49.444;11.054;2022-12-18T13:36:31;-0.60;99.90
5346;DHT22;2695;49.444;11.054;2022-12-18T13:39:25;-0.70;99.90
5346;DHT22;2695;49.444;11.054;2022-12-18T13:42:38;-0.70;99.90
5346;DHT22;2695;49.444;11.054;2022-12-18T13:45:45;-0.60;99.90
5346;DHT22;2695;49.444;11.054;2022-12-18T13:48:19;-0.70;99.90
5346;DHT22;2695;49.444;11.054;2022-12-18T13:50:59;-0.80;99.90
5346;DHT22;2695;49.444;11.054;2022-12-18T13:53:36;-0.80;99.90
5346;DHT22;2695;49.444;11.054;2022-12-18T13:56:07;-0.80;99.90
5346;DHT22;2695;49.444;11.054;2022-12-18T13:58:35;-0.70;99.90
5346;DHT22;2695;49.444;11.054;2022-12-18T14:01:04;-0.60;99.90
5346;DHT22;2695;49.444;11.054;2022-12-18T14:03:33;-0.70;99.90
5346;DHT22;2695;49.444;11.054;2022-12-18T14:06:06;-0.60;99.90
5346;DHT22;2695;49.444;11.054;2022-12-18T14:08:38;-0.80;99.90
5346;DHT22;2695;49.444;11.054;2022-12-18T14:11:18;-0.80;99.90
5346;DHT22;2695;49.444;11.054;2022-12-18T14:13:49;-0.90;99.90
5346;DHT22;2695;49.444;11.054;2022-12-18T14:16:18;-1.00;99.90
5346;DHT22;2695;49.444;11.054;2022-12-18T14:18:48;-1.10;99.90
5346;DHT22;2695;49.444;11.054;2022-12-18T14:21:26;-1.10;99.90
5346;DHT22;2695;49.444;11.054;2022-12-18T14:24:11;-1.30;99.90
5346;DHT22;2695;49.444;11.054;2022-12-18T14:26:43;-1.30;99.90
5346;DHT22;2695;49.444;11.054;2022-12-18T14:29:23;-1.30;99.90
5346;DHT22;2695;49.444;11.054;2022-12-18T14:32:09;-1.30;99.90
5346;DHT22;2695;49.444;11.054;2022-12-18T14:34:44;-1.30;99.90
5346;DHT22;2695;49.444;11.054;2022-12-18T14:37:20;-1.40;99.90
5346;DHT22;2695;49.444;11.054;2022-12-18T14:39:57;-1.40;99.90
5346;DHT22;2695;49.444;11.054;2022-12-18T14:42:26;-1.30;99.90
5346;DHT22;2695;49.444;11.054;2022-12-18T14:45:33;-1.30;99.90
5346;DHT22;2695;49.444;11.054;2022-12-18T14:48:11;-1.40;99.90
5346;DHT22;2695;49.444;11.054;2022-12-18T14:50:56;-1.40;99.90
5346;DHT22;2695;49.444;11.054;2022-12-18T14:53:33;-1.40;99.90
5346;DHT22;2695;49.444;11.054;2022-12-18T14:56:14;-1.50;99.90
5346;DHT22;2695;49.444;11.054;2022-12-18T14:58:47;-1.50;99.90
5346;DHT22;2695;49.444;11.054;2022-12-18T15:01:21;-1.60;99.90
5346;DHT22;2695;49.444;11.054;2022-12-18T15:03:52;-1.70;99.90
5346;DHT22;2695;49.444;11.054;2022-12-18T15:06:29;-1.80;99.90
5346;DHT22;2695;49.444;11.054;2022-12-18T15:09:02;-1.70;99.90
5346;DHT22;2695;49.444;11.054;2022-12-18T15:11:43;-1.70;99.90
5346;DHT22;2695;49.444;11.054;2022-12-18T15:14:33;-1.80;99.90
5346;DHT22;2695;49.444;11.054;2022-12-18T15:17:05;-1.80;99.90
5346;DHT22;2695;49.444;11.054;2022-12-18T15:19:39;-1.80;99.90
5346;DHT22;2695;49.444;11.054;2022-12-18T15:22:21;-1.80;99.90
5346;DHT22;2695;49.444;11.054;2022-12-18T15:24:50;-1.90;99.90
5346;DHT22;2695;49.444;11.054;2022-12-18T15:27:25;-2.00;99.90
5346;DHT22;2695;49.444;11.054;2022-12-18T15:30:17;-1.90;99.90
5346;DHT22;2695;49.444;11.054;2022-12-18T15:32:46;-2.00;99.90
5346;DHT22;2695;49.444;11.054;2022-12-18T15:35:17;-2.00;99.90
5346;DHT22;2695;49.444;11.054;2022-12-18T15:37:46;-2.00;99.90
5346;DHT22;2695;49.444;11.054;2022-12-18T15:40:18;-2.10;99.90
5346;DHT22;2695;49.444;11.054;2022-12-18T15:42:47;-2.10;99.90
5346;DHT22;2695;49.444;11.054;2022-12-18T15:45:33;-2.00;99.90
5346;DHT22;2695;49.444;11.054;2022-12-18T15:48:03;-2.10;99.90
5346;DHT22;2695;49.444;11.054;2022-12-18T15:50:33;-2.10;99.90
5346;DHT22;2695;49.444;11.054;2022-12-18T15:53:04;-2.10;99.90
5346;DHT22;2695;49.444;11.054;2022-12-18T15:55:34;-2.10;99.90
5346;DHT22;2695;49.444;11.054;2022-12-18T15:58:26;-2.20;99.90
5346;DHT22;2695;49.444;11.054;2022-12-18T16:00:55;-2.20;99.90
5346;DHT22;2695;49.444;11.054;2022-12-18T16:03:26;-2.20;99.90
5346;DHT22;2695;49.444;11.054;2022-12-18T16:05:54;-2.20;99.90
5346;DHT22;2695;49.444;11.054;2022-12-18T16:08:23;-2.20;99.90
5346;DHT22;2695;49.444;11.054;2022-12-18T16:10:53;-2.10;99.90
5346;DHT22;2695;49.444;11.054;2022-12-18T16:13:22;-2.10;99.90
5346;DHT22;2695;49.444;11.054;2022-12-18T16:15:50;-2.20;99.90
5346;DHT22;2695;49.444;11.054;2022-12-18T16:18:18;-2.30;99.90
5346;DHT22;2695;49.444;11.054;2022-12-18T16:20:46;-2.20;99.90
5346;DHT22;2695;49.444;11.054;2022-12-18T16:23:15;-2.30;99.90
5346;DHT22;2695;49.444;11.054;2022-12-18T16:25:43;-2.30;99.90
5346;DHT22;2695;49.444;11.054;2022-12-18T16:28:12;-2.30;99.90